createdAt,value
2018-02-15T00:00:10.306Z,20.45
2018-02-15T00:02:39.846Z,21.42
2018-02-15T00:05:09.627Z,23.00
2018-02-15T00:07:39.123Z,22.00
2018-02-15T00:10:09.059Z,23.25
2018-02-15T00:12:38.576Z,21.08
2018-02-15T00:15:08.587Z,20.02
2018-02-15T00:17:38.150Z,21.40
2018-02-15T00:20:07.908Z,20.83
2018-02-15T00:22:37.493Z,20.77
2018-02-15T00:25:07.062Z,22.40
2018-02-15T00:27:36.593Z,19.02
2018-02-15T00:30:06.353Z,20.65
2018-02-15T00:32:35.894Z,18.50
2018-02-15T00:35:05.625Z,20.60
2018-02-15T00:37:35.221Z,26.05
2018-02-15T00:40:05.004Z,19.35
2018-02-15T00:42:34.575Z,16.90
2018-02-15T00:45:04.432Z,20.27
2018-02-15T00:47:33.938Z,21.05
2018-02-15T00:50:03.860Z,23.77
2018-02-15T00:52:33.365Z,19.65
2018-02-15T00:55:03.082Z,28.12
2018-02-15T00:57:32.595Z,27.62
2018-02-15T01:00:02.118Z,21.30
2018-02-15T01:02:31.635Z,17.75
2018-02-15T01:05:01.143Z,23.00
2018-02-15T01:07:30.636Z,19.75
2018-02-15T01:10:00.143Z,22.52
2018-02-15T01:12:29.627Z,19.87
2018-02-15T01:14:59.129Z,19.08
2018-02-15T01:17:28.629Z,20.42
2018-02-15T01:19:58.116Z,20.17
2018-02-15T01:22:27.624Z,21.58
2018-02-15T01:24:57.104Z,27.77
2018-02-15T01:27:26.599Z,19.52
2018-02-15T01:29:56.070Z,17.02
2018-02-15T01:32:25.644Z,21.00
2018-02-15T01:34:55.152Z,15.95
2018-02-15T01:37:24.676Z,17.55
2018-02-15T01:39:54.162Z,19.30
2018-02-15T01:42:23.741Z,19.08
2018-02-15T01:44:53.246Z,18.02
2018-02-15T01:47:22.716Z,26.85
2018-02-15T01:49:58.255Z,17.58
2018-02-15T01:52:27.757Z,20.50
2018-02-15T01:54:57.236Z,21.58
2018-02-15T01:57:26.746Z,26.23
2018-02-15T01:59:56.215Z,21.55
2018-02-15T02:02:25.717Z,20.35
2018-02-15T02:04:55.226Z,19.80
2018-02-15T02:07:24.778Z,18.70
2018-02-15T02:09:54.289Z,19.80
2018-02-15T02:12:23.748Z,20.95
2018-02-15T02:14:53.259Z,23.05
2018-02-15T02:17:22.769Z,18.27
2018-02-15T02:19:52.268Z,19.12
2018-02-15T02:22:21.777Z,18.85
2018-02-15T02:24:51.233Z,21.75
2018-02-15T02:27:20.746Z,19.35
2018-02-15T02:29:50.258Z,21.95
2018-02-15T02:32:19.721Z,17.25
2018-02-15T02:34:49.238Z,17.35
2018-02-15T02:37:18.753Z,20.92
2018-02-15T02:39:48.239Z,16.45
2018-02-15T02:42:17.767Z,18.48
2018-02-15T02:44:47.247Z,20.08
2018-02-15T02:47:16.769Z,22.75
2018-02-15T02:49:46.246Z,21.52
2018-02-15T02:52:15.790Z,15.85
2018-02-15T02:54:45.244Z,19.98
2018-02-15T02:57:14.748Z,20.02
2018-02-15T02:59:44.226Z,21.60
2018-02-15T03:02:13.730Z,17.95
2018-02-15T03:04:43.267Z,20.25
2018-02-15T03:07:12.810Z,19.15
2018-02-15T03:09:42.333Z,18.02
2018-02-15T03:12:11.832Z,20.52
2018-02-15T03:14:41.348Z,20.62
2018-02-15T03:17:10.895Z,23.95
2018-02-15T03:19:40.409Z,17.45
2018-02-15T03:22:09.894Z,15.57
2018-02-15T03:24:39.400Z,17.35
2018-02-15T03:27:08.921Z,17.37
2018-02-15T03:29:38.425Z,18.40
2018-02-15T03:32:07.892Z,23.17
2018-02-15T03:34:37.407Z,22.02
2018-02-15T03:37:06.884Z,20.33
2018-02-15T03:39:36.383Z,21.15
2018-02-15T03:42:05.845Z,18.98
2018-02-15T03:44:35.361Z,22.87
2018-02-15T03:47:04.830Z,21.45
2018-02-15T03:49:34.356Z,16.87
2018-02-15T03:52:03.831Z,18.92
2018-02-15T03:54:33.303Z,17.42
2018-02-15T03:57:02.816Z,17.42
2018-02-15T03:59:32.298Z,19.40
2018-02-15T04:02:01.805Z,17.67
2018-02-15T04:04:31.278Z,16.40
2018-02-15T04:07:00.797Z,19.50
2018-02-15T04:09:30.307Z,21.52
2018-02-15T04:11:59.795Z,20.42
2018-02-15T04:14:29.306Z,19.02
2018-02-15T04:16:58.789Z,18.35
2018-02-15T04:19:28.410Z,15.98
2018-02-15T04:21:57.904Z,20.00
2018-02-15T04:24:27.485Z,18.92
2018-02-15T04:26:56.992Z,17.90
2018-02-15T04:29:26.476Z,15.55
2018-02-15T04:31:56.176Z,18.60
2018-02-15T04:34:25.668Z,18.92
2018-02-15T04:36:55.319Z,19.73
2018-02-15T04:39:24.830Z,19.45
2018-02-15T04:41:54.314Z,20.92
2018-02-15T04:44:23.823Z,19.25
2018-02-15T04:46:53.305Z,19.00
2018-02-15T04:49:22.919Z,19.67
2018-02-15T04:51:52.440Z,20.27
2018-02-15T04:54:21.931Z,19.35
2018-02-15T04:56:51.408Z,18.92
2018-02-15T04:59:20.922Z,18.70
2018-02-15T05:01:51.457Z,19.12
2018-02-15T05:04:20.903Z,19.60
2018-02-15T05:06:50.407Z,16.10
2018-02-15T05:09:19.900Z,17.60
2018-02-15T05:11:49.396Z,17.92
2018-02-15T05:14:18.890Z,19.27
2018-02-15T05:16:48.409Z,19.73
2018-02-15T05:19:17.893Z,18.37
2018-02-15T05:21:47.404Z,18.00
2018-02-15T05:24:16.908Z,19.80
2018-02-15T05:26:46.429Z,17.23
2018-02-15T05:29:15.896Z,17.10
2018-02-15T05:31:45.432Z,19.50
2018-02-15T05:34:14.908Z,20.58
2018-02-15T05:36:44.419Z,21.25
2018-02-15T05:39:13.906Z,23.58
2018-02-15T05:41:43.416Z,22.45
2018-02-15T05:44:12.972Z,20.02
2018-02-15T05:46:42.433Z,20.52
2018-02-15T05:49:11.974Z,21.25
2018-02-15T05:51:41.494Z,21.37
2018-02-15T05:54:11.033Z,20.95
2018-02-15T05:56:40.515Z,23.38
2018-02-15T05:59:10.023Z,20.10
2018-02-15T06:01:39.546Z,20.75
2018-02-15T06:04:09.063Z,21.50
2018-02-15T06:06:38.568Z,20.50
2018-02-15T06:09:08.090Z,20.25
2018-02-15T06:11:37.584Z,23.20
2018-02-15T06:14:07.203Z,25.10
2018-02-15T06:16:36.699Z,21.25
2018-02-15T06:19:06.199Z,24.65
2018-02-15T06:21:35.691Z,21.02
2018-02-15T06:24:05.202Z,17.25
2018-02-15T06:26:34.729Z,20.35
2018-02-15T06:29:04.182Z,23.83
2018-02-15T06:31:33.682Z,20.02
2018-02-15T06:34:03.181Z,19.12
2018-02-15T06:36:32.693Z,19.75
2018-02-15T06:39:02.183Z,22.23
2018-02-15T06:41:31.697Z,20.80
2018-02-15T06:44:01.222Z,24.45
2018-02-15T06:46:30.719Z,24.23
2018-02-15T06:49:00.219Z,24.00
2018-02-15T06:51:29.697Z,20.12
2018-02-15T06:53:59.204Z,21.25
2018-02-15T06:56:28.704Z,18.62
2018-02-15T06:58:58.196Z,23.48
2018-02-15T07:01:27.736Z,20.45
2018-02-15T07:03:57.239Z,25.85
2018-02-15T07:06:26.809Z,23.65
2018-02-15T07:08:56.334Z,24.10
2018-02-15T07:11:25.828Z,24.15
2018-02-15T07:13:55.318Z,21.45
2018-02-15T07:16:24.794Z,22.33
2018-02-15T07:18:54.316Z,20.20
2018-02-15T07:21:23.823Z,19.10
2018-02-15T07:23:53.316Z,20.30
2018-02-15T07:26:22.785Z,22.27
2018-02-15T07:28:52.318Z,22.58
2018-02-15T07:31:21.787Z,22.10
2018-02-15T07:33:51.301Z,24.65
2018-02-15T07:36:20.783Z,23.50
2018-02-15T07:38:50.299Z,21.50
2018-02-15T07:41:19.803Z,21.98
2018-02-15T07:43:49.291Z,25.08
2018-02-15T07:46:18.804Z,21.60
2018-02-15T07:48:48.320Z,19.70
2018-02-15T07:51:17.811Z,15.13
2018-02-15T07:53:47.282Z,20.15
2018-02-15T07:56:16.849Z,22.02
2018-02-15T07:58:46.303Z,21.90
2018-02-15T08:01:15.797Z,21.17
2018-02-15T08:03:45.315Z,23.67
2018-02-15T08:06:14.882Z,24.05
2018-02-15T08:08:44.385Z,22.55
2018-02-15T08:11:13.864Z,25.95
2018-02-15T08:13:43.408Z,19.70
2018-02-15T08:16:12.902Z,21.20
2018-02-15T08:18:42.419Z,19.70
2018-02-15T08:21:11.882Z,19.30
2018-02-15T08:23:41.429Z,19.98
2018-02-15T08:26:11.051Z,20.45
2018-02-15T08:28:40.548Z,21.90
2018-02-15T08:31:10.058Z,21.60
2018-02-15T08:33:39.603Z,22.55
2018-02-15T08:36:09.101Z,20.52
2018-02-15T08:38:38.714Z,21.48
2018-02-15T08:41:08.745Z,16.85
2018-02-15T08:43:38.240Z,21.35
2018-02-15T08:46:07.720Z,18.87
2018-02-15T08:48:37.295Z,20.00
2018-02-15T08:51:06.795Z,19.58
2018-02-15T08:53:36.268Z,20.37
2018-02-15T08:56:05.805Z,15.77
2018-02-15T08:58:35.337Z,17.90
2018-02-15T09:01:04.821Z,22.42
2018-02-15T09:03:34.332Z,21.65
2018-02-15T09:06:03.834Z,20.67
2018-02-15T09:08:33.355Z,24.37
2018-02-15T09:11:02.834Z,20.85
2018-02-15T09:13:32.360Z,23.60
2018-02-15T09:16:01.854Z,22.02
2018-02-15T09:18:31.354Z,21.70
2018-02-15T09:21:00.853Z,17.58
2018-02-15T09:23:30.396Z,22.75
2018-02-15T09:25:59.852Z,22.50
2018-02-15T09:28:29.356Z,19.65
2018-02-15T09:30:58.912Z,16.05
2018-02-15T09:33:29.289Z,19.02
2018-02-15T09:35:58.763Z,19.83
2018-02-15T09:38:28.251Z,17.05
2018-02-15T09:40:57.730Z,19.05
2018-02-15T09:43:27.257Z,23.50
2018-02-15T09:45:56.778Z,23.42
2018-02-15T09:48:26.299Z,19.33
2018-02-15T09:50:55.870Z,14.80
2018-02-15T09:53:25.353Z,21.25
2018-02-15T09:55:54.872Z,20.62
2018-02-15T09:58:24.370Z,20.58
2018-02-15T10:00:53.862Z,20.90
2018-02-15T10:03:23.374Z,22.37
2018-02-15T10:05:53.026Z,21.15
2018-02-15T10:08:22.525Z,19.08
2018-02-15T10:10:52.041Z,20.95
2018-02-15T10:13:21.568Z,21.12
2018-02-15T10:15:51.080Z,18.12
2018-02-15T10:18:20.564Z,26.62
2018-02-15T10:20:50.080Z,21.90
2018-02-15T10:23:19.553Z,23.23
2018-02-15T10:25:49.118Z,22.77
2018-02-15T10:28:18.594Z,27.40
2018-02-15T10:30:48.096Z,23.25
2018-02-15T10:33:17.565Z,23.17
2018-02-15T10:35:47.083Z,23.95
2018-02-15T10:38:16.594Z,23.48
2018-02-15T10:40:46.067Z,29.40
2018-02-15T10:43:15.577Z,24.20
2018-02-15T10:45:45.043Z,23.33
2018-02-15T10:48:14.583Z,24.08
2018-02-15T10:50:44.081Z,22.80
2018-02-15T10:53:13.563Z,22.60
2018-02-15T10:55:43.055Z,22.50
2018-02-15T10:58:12.560Z,21.65
2018-02-15T11:01:00.886Z,19.17
2018-02-15T11:03:30.359Z,19.58
2018-02-15T11:06:00.656Z,21.30
2018-02-15T11:08:30.189Z,19.60
2018-02-15T11:10:59.808Z,21.67
2018-02-15T11:13:29.527Z,20.08
2018-02-15T11:15:59.047Z,20.17
2018-02-15T11:18:28.698Z,18.45
2018-02-15T11:20:58.187Z,23.12
2018-02-15T11:23:27.688Z,18.92
2018-02-15T11:25:57.219Z,18.40
2018-02-15T11:28:26.709Z,20.40
2018-02-15T11:30:56.188Z,18.10
2018-02-15T11:33:25.670Z,23.00
2018-02-15T11:35:55.371Z,20.62
2018-02-15T11:38:24.852Z,23.15
2018-02-15T11:40:54.440Z,21.65
2018-02-15T11:43:23.952Z,22.73
2018-02-15T11:45:53.498Z,23.77
2018-02-15T11:48:23.056Z,19.42
2018-02-15T11:50:52.545Z,20.37
2018-02-15T11:53:22.076Z,20.12
2018-02-15T11:55:51.549Z,20.30
2018-02-15T11:58:21.069Z,20.77
2018-02-15T12:00:50.544Z,21.17
2018-02-15T12:03:20.058Z,19.25
2018-02-15T12:05:49.604Z,22.70
2018-02-15T12:08:19.125Z,18.35
2018-02-15T12:10:48.633Z,21.40
2018-02-15T12:13:18.136Z,21.00
2018-02-15T12:15:47.607Z,17.23
2018-02-15T12:18:17.104Z,21.83
2018-02-15T12:20:46.580Z,24.73
2018-02-15T12:23:16.096Z,22.95
2018-02-15T12:25:45.584Z,19.65
2018-02-15T12:28:15.109Z,24.00
2018-02-15T12:30:44.595Z,20.98
2018-02-15T12:33:14.154Z,22.50
2018-02-15T12:35:43.627Z,18.90
2018-02-15T12:38:13.155Z,20.62
2018-02-15T12:40:42.703Z,23.83
2018-02-15T12:43:12.216Z,22.67
2018-02-15T12:45:41.712Z,22.30
2018-02-15T12:48:11.226Z,25.05
2018-02-15T12:50:40.725Z,24.12
2018-02-15T12:53:10.203Z,21.52
2018-02-15T12:55:39.728Z,24.65
2018-02-15T12:58:09.304Z,25.88
2018-02-15T13:00:38.823Z,21.98
2018-02-15T13:03:08.280Z,21.90
2018-02-15T13:05:37.806Z,22.05
2018-02-15T13:08:07.360Z,22.87
2018-02-15T13:10:36.823Z,21.65
2018-02-15T13:13:12.220Z,22.37
2018-02-15T13:15:47.647Z,23.45
2018-02-15T13:18:17.165Z,25.35
2018-02-15T13:20:46.638Z,24.30
2018-02-15T13:23:16.152Z,21.75
2018-02-15T13:25:45.615Z,21.85
2018-02-15T13:28:21.020Z,23.38
2018-02-15T13:30:50.483Z,26.58
2018-02-15T13:33:19.992Z,25.17
2018-02-15T13:35:49.515Z,20.58
2018-02-15T13:38:18.998Z,24.27
2018-02-15T13:40:48.528Z,23.90
2018-02-15T13:43:17.998Z,25.67
2018-02-15T13:45:47.509Z,24.70
2018-02-15T13:48:16.996Z,23.50
2018-02-15T13:50:47.202Z,26.85
2018-02-15T13:53:16.701Z,26.33
2018-02-15T13:55:46.262Z,26.90
2018-02-15T13:58:15.962Z,27.75
2018-02-15T14:00:45.567Z,24.73
2018-02-15T14:03:15.040Z,27.15
2018-02-15T14:05:44.558Z,23.35
2018-02-15T14:08:14.128Z,21.20
2018-02-15T14:10:43.660Z,24.48
2018-02-15T14:13:13.207Z,23.92
2018-02-15T14:15:42.734Z,25.75
2018-02-15T14:18:12.238Z,20.85
2018-02-15T14:20:41.887Z,25.77
2018-02-15T14:23:11.468Z,24.00
2018-02-15T14:25:40.987Z,22.15
2018-02-15T14:28:10.511Z,24.42
2018-02-15T14:30:39.971Z,24.65
2018-02-15T14:33:09.466Z,26.33
2018-02-15T14:35:39.127Z,22.30
2018-02-15T14:38:08.621Z,25.15
2018-02-15T14:40:38.110Z,26.60
2018-02-15T14:43:07.696Z,28.27
2018-02-15T14:45:37.167Z,28.12
2018-02-15T14:48:06.712Z,26.92
2018-02-15T14:50:36.208Z,26.67
2018-02-15T14:53:05.731Z,28.48
2018-02-15T14:55:35.216Z,27.55
2018-02-15T14:58:04.732Z,26.30
2018-02-15T15:00:34.253Z,27.80
2018-02-15T15:03:03.751Z,26.55
2018-02-15T15:05:33.259Z,22.37
2018-02-15T15:08:02.780Z,28.75
2018-02-15T15:10:32.334Z,25.58
2018-02-15T15:13:01.860Z,26.80
2018-02-15T15:15:31.350Z,29.60
2018-02-15T15:18:00.862Z,29.95
2018-02-15T15:20:30.374Z,32.03
2018-02-15T15:22:59.940Z,27.98
2018-02-15T15:25:29.462Z,27.40
2018-02-15T15:27:58.962Z,29.85
2018-02-15T15:30:28.494Z,31.37
2018-02-15T15:32:57.958Z,35.17
2018-02-15T15:35:27.482Z,30.83
2018-02-15T15:37:56.966Z,26.08
2018-02-15T15:40:26.488Z,28.80
2018-02-15T15:42:55.983Z,24.75
2018-02-15T15:45:25.504Z,31.30
2018-02-15T15:47:55.043Z,29.65
2018-02-15T15:50:24.504Z,26.10
2018-02-15T15:52:54.119Z,27.23
2018-02-15T15:55:23.612Z,30.15
2018-02-15T15:57:53.124Z,26.70
2018-02-15T16:00:22.635Z,31.67
2018-02-15T16:02:52.129Z,25.67
2018-02-15T16:05:21.676Z,29.35
2018-02-15T16:07:51.164Z,34.03
2018-02-15T16:10:20.710Z,30.27
2018-02-15T16:12:50.212Z,30.23
2018-02-15T16:15:19.772Z,32.25
2018-02-15T16:17:49.223Z,26.48
2018-02-15T16:20:18.703Z,31.02
2018-02-15T16:22:48.241Z,29.52
2018-02-15T16:25:17.727Z,29.37
2018-02-15T16:27:47.411Z,24.87
2018-02-15T16:30:16.878Z,29.60
2018-02-15T16:32:46.404Z,27.95
2018-02-15T16:35:15.896Z,30.00
2018-02-15T16:37:45.853Z,29.73
2018-02-15T16:40:15.329Z,29.80
2018-02-15T16:42:44.859Z,32.65
2018-02-15T16:45:14.730Z,29.55
2018-02-15T16:47:44.266Z,31.87
2018-02-15T16:50:13.797Z,29.35
2018-02-15T16:52:43.270Z,30.50
2018-02-15T16:55:12.817Z,29.60
2018-02-15T16:57:42.304Z,27.65
2018-02-15T17:00:11.888Z,27.85
2018-02-15T17:02:41.407Z,31.52
2018-02-15T17:05:10.946Z,29.00
2018-02-15T17:07:40.465Z,28.12
2018-02-15T17:10:10.001Z,30.30
2018-02-15T17:12:39.524Z,28.45
2018-02-15T17:15:09.077Z,30.45
2018-02-15T17:17:38.551Z,25.85
2018-02-15T17:20:08.186Z,28.30
2018-02-15T17:22:37.697Z,32.72
2018-02-15T17:25:07.358Z,28.00
2018-02-15T17:27:36.832Z,31.40
2018-02-15T17:30:06.639Z,28.67
2018-02-15T17:32:36.126Z,31.80
2018-02-15T17:35:05.823Z,28.40
2018-02-15T17:37:35.335Z,29.20
2018-02-15T17:40:05.733Z,32.38
2018-02-15T17:42:35.213Z,24.25
2018-02-15T17:45:04.855Z,28.38
2018-02-15T17:47:34.335Z,29.15
2018-02-15T17:50:04.265Z,24.85
2018-02-15T17:52:33.777Z,29.80
2018-02-15T17:55:03.447Z,29.42
2018-02-15T17:57:32.961Z,25.23
2018-02-15T18:00:02.461Z,31.20
2018-02-15T18:02:32.018Z,31.95
2018-02-15T18:05:01.496Z,26.48
2018-02-15T18:07:31.007Z,30.75
2018-02-15T18:10:00.505Z,27.13
2018-02-15T18:12:30.020Z,31.10
2018-02-15T18:14:59.513Z,26.60
2018-02-15T18:17:29.040Z,28.83
2018-02-15T18:19:58.535Z,30.98
2018-02-15T18:22:28.042Z,28.38
2018-02-15T18:24:57.549Z,27.75
2018-02-15T18:27:27.075Z,29.98
2018-02-15T18:29:56.582Z,31.42
2018-02-15T18:32:26.140Z,32.33
2018-02-15T18:34:55.746Z,29.25
2018-02-15T18:37:25.216Z,24.83
2018-02-15T18:39:54.750Z,26.58
2018-02-15T18:42:24.308Z,29.98
2018-02-15T18:44:53.812Z,27.10
2018-02-15T18:47:23.411Z,28.15
2018-02-15T18:49:52.850Z,22.40
2018-02-15T18:52:22.427Z,24.52
2018-02-15T18:54:52.713Z,28.58
2018-02-15T18:57:22.322Z,28.15
2018-02-15T18:59:51.803Z,23.25
2018-02-15T19:02:21.389Z,29.30
2018-02-15T19:04:50.868Z,26.83
2018-02-15T19:07:20.402Z,28.65
2018-02-15T19:09:49.949Z,25.25
2018-02-15T19:12:19.608Z,27.83
2018-02-15T19:14:49.118Z,27.13
2018-02-15T19:17:18.615Z,25.80
2018-02-15T19:19:48.163Z,30.02
2018-02-15T19:22:17.674Z,24.58
2018-02-15T19:24:47.163Z,29.23
2018-02-15T19:27:16.681Z,24.48
2018-02-15T19:29:46.258Z,31.55
2018-02-15T19:32:15.768Z,27.92
2018-02-15T19:34:45.304Z,24.45
2018-02-15T19:37:14.838Z,27.55
2018-02-15T19:39:44.338Z,27.13
2018-02-15T19:42:13.865Z,29.95
2018-02-15T19:44:43.432Z,28.20
2018-02-15T19:47:12.960Z,28.83
2018-02-15T19:49:42.481Z,28.08
2018-02-15T19:52:12.061Z,27.27
2018-02-15T19:54:41.574Z,26.20
2018-02-15T19:57:11.104Z,32.20
2018-02-15T19:59:40.620Z,32.08
2018-02-15T20:02:10.139Z,28.27
2018-02-15T20:04:39.685Z,25.95
2018-02-15T20:07:09.202Z,25.80
2018-02-15T20:09:38.725Z,31.58
2018-02-15T20:12:08.215Z,28.65
2018-02-15T20:14:37.731Z,34.22
2018-02-15T20:17:07.226Z,28.62
2018-02-15T20:19:36.770Z,28.50
2018-02-15T20:22:06.279Z,25.98
2018-02-15T20:24:35.848Z,29.25
2018-02-15T20:27:11.242Z,33.22
2018-02-15T20:29:40.764Z,31.48
2018-02-15T20:32:10.273Z,26.90
2018-02-15T20:34:39.827Z,31.48
2018-02-15T20:37:09.366Z,30.58
2018-02-15T20:39:44.575Z,32.63
2018-02-15T20:42:14.119Z,28.60
2018-02-15T20:44:43.622Z,32.42
2018-02-15T20:47:13.151Z,29.08
2018-02-15T20:49:48.481Z,30.80
2018-02-15T20:52:23.888Z,31.02
2018-02-15T20:54:59.070Z,28.08
2018-02-15T20:57:28.600Z,29.23
2018-02-15T20:59:58.091Z,28.33
2018-02-15T21:02:27.598Z,28.20
2018-02-15T21:04:57.118Z,27.27
2018-02-15T21:07:26.653Z,26.87
2018-02-15T21:09:56.133Z,27.05
2018-02-15T21:12:25.649Z,26.67
2018-02-15T21:14:55.157Z,27.85
2018-02-15T21:17:24.676Z,25.02
2018-02-15T21:19:54.157Z,27.05
2018-02-15T21:22:23.633Z,26.23
2018-02-15T21:24:53.146Z,24.37
2018-02-15T21:27:22.644Z,27.33
2018-02-15T21:29:52.157Z,29.12
2018-02-15T21:32:21.694Z,28.02
2018-02-15T21:34:51.250Z,28.38
2018-02-15T21:37:20.722Z,32.15
2018-02-15T21:39:50.241Z,26.10
2018-02-15T21:42:19.728Z,28.77
2018-02-15T21:44:49.349Z,28.38
2018-02-15T21:47:18.923Z,28.50
2018-02-15T21:49:48.435Z,31.85
2018-02-15T21:52:17.975Z,24.80
2018-02-15T21:54:47.483Z,28.35
2018-02-15T21:57:16.958Z,27.98
2018-02-15T21:59:46.466Z,33.22
2018-02-15T22:02:15.925Z,31.75
2018-02-15T22:04:45.444Z,24.67
2018-02-15T22:07:14.918Z,28.05
2018-02-15T22:09:44.445Z,29.17
2018-02-15T22:12:13.914Z,29.63
2018-02-15T22:14:43.440Z,28.50
2018-02-15T22:17:13.068Z,28.80
2018-02-15T22:19:42.576Z,30.33
2018-02-15T22:22:12.091Z,24.87
2018-02-15T22:24:41.558Z,25.35
2018-02-15T22:27:11.060Z,29.85
2018-02-15T22:29:40.589Z,29.52
2018-02-15T22:32:10.104Z,32.47
2018-02-15T22:34:39.598Z,30.37
2018-02-15T22:37:09.097Z,29.95
2018-02-15T22:39:38.574Z,31.23
2018-02-15T22:42:08.099Z,31.05
2018-02-15T22:44:37.589Z,29.20
2018-02-15T22:47:07.093Z,29.83
2018-02-15T22:49:36.600Z,30.05
2018-02-15T22:52:06.071Z,32.60
2018-02-15T22:54:35.584Z,32.28
2018-02-15T22:57:05.116Z,29.25
2018-02-15T22:59:34.626Z,34.30
2018-02-15T23:02:04.147Z,33.95
2018-02-15T23:04:33.653Z,35.28
2018-02-15T23:07:03.146Z,36.30
2018-02-15T23:09:32.632Z,35.35
2018-02-15T23:12:02.114Z,37.42
2018-02-15T23:14:31.639Z,36.72
2018-02-15T23:17:01.119Z,37.95
2018-02-15T23:19:30.650Z,34.33
2018-02-15T23:22:00.141Z,40.60
2018-02-15T23:24:29.656Z,32.20
2018-02-15T23:26:59.137Z,33.30
2018-02-15T23:29:28.674Z,33.75
2018-02-15T23:31:58.163Z,35.42
2018-02-15T23:34:27.677Z,41.35
2018-02-15T23:36:57.159Z,39.50
2018-02-15T23:39:26.699Z,36.08
2018-02-15T23:41:56.222Z,36.55
2018-02-15T23:44:25.709Z,45.25
2018-02-15T23:46:55.246Z,38.30
2018-02-15T23:49:24.699Z,38.63
2018-02-15T23:51:54.218Z,40.63
2018-02-15T23:54:23.709Z,43.28
2018-02-15T23:56:53.203Z,48.38
2018-02-15T23:59:22.686Z,46.45
